YJF weather

Fort Liard Airport
Fort Liard, Northwest Territories, Canada

Public forecast

Using degrees Celsius for public forecast. Weather courtesy of forecast.io.

METAR (pilot weather report)

Report is more than 6 hours old.

Retrieved 2019/08/23 22:00 UTC (1 day ago):

CYJF 232200Z 23006KT 180V310 15SM FEW110 SCT220 SCT230 SCT250 19/06 A2953 RMK AC2CC1CI1CS1 CS TR R00 AFT 12UTC 0/LAST STFD OBS/NEXT 261400UTC SLP004 DENSITY ALT 1800FT

TAF (pilot weather forecast)

Closest forecast is Fort Nelson Airport, 88.1 nm (163.2 km) SSE. Retrieved 2019/08/25 01:42 UTC (2 hours ago):

TAF CYYE 250038Z 2501/2513 VRB03KT P6SM SCT060 BKN190 FM250400 VRB03KT P6SM BKN050 FM250800 VRB03KT P6SM OVC040 TEMPO 2508/2513 5SM -SHRA BR OVC020 RMK NXT FCST BY 250700Z